< Typhoon 201415 2014 Season Typhoon 201417 >
Typhoon 201416 (FUNG-WONG)
General InformationTrack Information on Google MapsDetailed Wind InformationForecast History on Google MapsAccess Analytics MapList of All Images || NewsDisaster Info.WeblogTrackbackTyphoon FrontTwiphoonTyphoon Now!Typhoon ImaginationDisaster Info. XMLResourceGoogle EarthGE AnimationAtom FeedGeoJSON
Detalied Best Track (Time Zone = UTC)
Year Month Day Hour Lat. Long. Pressure (hPa) Wind (kt) Class Image Chart
2014 9 17 00 12.6 135.0 1002 0 2 Image Chart
2014 9 17 06 12.5 132.8 1002 0 2 Image Chart
2014 9 17 12 12.7 131.3 1000 35 3 Image Chart
2014 9 17 18 13.5 129.2 1000 35 3 Image Chart
2014 9 18 00 14.2 128.0 998 40 3 Image Chart
2014 9 18 06 14.8 126.9 996 40 3 Image Chart
2014 9 18 12 16.0 125.2 994 40 3 Image Chart
2014 9 18 18 17.0 123.7 990 45 3 Image Chart
2014 9 19 00 17.8 122.6 990 45 3 Image Chart
2014 9 19 06 18.6 120.9 985 45 3 Image Chart
2014 9 19 12 18.1 119.7 985 45 3 Image Chart
2014 9 19 18 17.8 120.2 985 45 3 Image Chart
2014 9 20 00 19.4 119.8 985 45 3 Image Chart
2014 9 20 06 20.1 119.5 985 45 3 Image Chart
2014 9 20 12 20.6 119.7 985 45 3 Image Chart
2014 9 20 18 20.9 120.0 985 45 3 Image Chart
2014 9 21 00 21.8 120.1 985 45 3 Image Chart
2014 9 21 06 22.7 121.4 985 45 3 Image Chart
2014 9 21 12 24.3 121.8 990 45 3 Image Chart
2014 9 21 18 26.1 122.1 990 45 3 Image Chart
2014 9 22 00 27.2 122.0 990 40 3 Image Chart
2014 9 22 06 28.3 122.1 990 40 3 Image Chart
2014 9 22 12 29.0 122.2 992 40 3 Image Chart
2014 9 22 18 29.8 121.9 996 35 3 Image Chart
2014 9 23 00 30.5 121.6 998 35 3 Image Chart
2014 9 23 06 31.3 121.8 998 35 3 Image Chart
2014 9 23 12 32.1 122.6 998 35 3 Image Chart
2014 9 23 18 32.7 123.0 998 35 3 Image Chart
2014 9 24 00 33.0 125.0 1002 0 6 Image Chart
2014 9 24 06 34.3 127.7 1002 0 6 Image Chart
2014 9 24 12 36.0 131.6 1002 0 6 Image Chart
2014 9 24 18 37.0 135.0 1000 0 6 Image Chart
2014 9 25 00 37.5 138.5 1002 0 6 Image Chart
Japan Meteorological Agency Best Track Data | Correction Date : 2014-10-27
< Typhoon 201415 2014 Season Typhoon 201417 >

Help